Ceahlau Toaca, Romania
Current Conditions -  °F | °C
As of 4:00 AM on Tuesday 27 Jan 2015 (Local Time) from LRBC Reporting Station
Haze Haze  
Wind Chill: 34°   Ceiling: 2600
Heat Index: 34°   Visibility: 2mi
Dew Point: 34°   Wind: 1mph
Humidity: 100%   Direction: 120°ESE
Pressure: 30.12"   Gusts: NA
Location:  46.93°N, 25.92°E
Report Text: LRBC 270100Z AUTO 12001KT 3200NDV BR OVC026/// 01/01 Q1020
Loading
Personal Weather Stations






























Interactive Weather Map New forecast layout! Learn more

10-Day Weather Forecast

Advertisements
Track Severe Weather on mobile